Time;durP1;ratioP1;P1;durP2;ratioP2;P2;SDS_P1;SDS_P2;PMS_P1;PMS_P2;Temp;Humidity;BMP_temperature;BMP_pressure;BME280_temperature;BME280_humidity;BME280_pressure;Samples;Min_cycle;Max_cycle;Signal;HPM_P1;HPM_P2
2021/10/17 00:02:05;;;;;;;19.90;9.60;;;;;;;5.07;88.67;101351.34;115777;1191;58844;-81
2021/10/17 00:04:32;;;;;;;21.50;8.70;;;;;;;5.09;88.62;101353.59;115702;1192;72584;-81
2021/10/17 00:06:58;;;;;;;17.30;9.40;;;;;;;5.13;89.06;101353.98;115724;1192;62067;-81
2021/10/17 00:09:25;;;;;;;19.50;9.30;;;;;;;5.21;89.19;101353.04;115710;1192;60198;-81
2021/10/17 00:11:52;;;;;;;21.70;9.80;;;;;;;5.28;88.87;101352.80;115747;1192;74595;-81
2021/10/17 00:14:22;;;;;;;18.30;8.80;;;;;;;5.33;88.42;101349.30;115750;1192;73075;-81
2021/10/17 00:16:49;;;;;;;23.00;10.00;;;;;;;5.33;87.92;101350.36;115792;1191;59204;-81
2021/10/17 00:19:15;;;;;;;16.40;8.60;;;;;;;5.33;88.15;101348.75;115729;1191;60901;-80
2021/10/17 00:21:42;;;;;;;19.00;8.50;;;;;;;5.33;88.22;101351.19;114920;1192;59188;-80
2021/10/17 00:24:09;;;;;;;16.40;7.90;;;;;;;5.34;88.22;101351.09;114835;1192;74638;-79
2021/10/17 00:26:35;;;;;;;20.80;8.20;;;;;;;5.35;88.27;101351.92;115275;1192;72944;-79
2021/10/17 00:29:02;;;;;;;22.30;9.10;;;;;;;5.38;88.51;101347.66;115260;1184;72790;-80
2021/10/17 00:31:29;;;;;;;20.40;8.90;;;;;;;5.41;88.50;101351.89;114915;1192;61655;-80
2021/10/17 00:33:56;;;;;;;20.90;8.70;;;;;;;5.45;88.56;101346.38;114968;1192;59312;-80
2021/10/17 00:36:24;;;;;;;18.40;8.70;;;;;;;5.48;88.32;101344.53;114985;1191;59184;-81
2021/10/17 00:38:51;;;;;;;27.30;8.10;;;;;;;5.49;88.13;101343.02;115345;1192;71019;-80
2021/10/17 00:41:18;;;;;;;19.30;8.50;;;;;;;5.50;88.13;101340.98;115291;1192;72572;-78
2021/10/17 00:43:45;;;;;;;28.80;8.60;;;;;;;5.53;88.20;101337.92;115434;1192;61995;-79
2021/10/17 00:46:20;;;;;;;23.40;7.40;;;;;;;5.59;88.50;101336.58;115497;1192;59041;-80
2021/10/17 00:48:47;;;;;;;19.70;8.40;;;;;;;5.65;88.37;101329.77;115575;1191;75077;-79
2021/10/17 00:51:14;;;;;;;16.20;7.70;;;;;;;5.70;88.32;101329.73;115524;1192;71669;-80
2021/10/17 00:53:41;;;;;;;20.30;8.50;;;;;;;5.73;88.30;101327.52;115539;1192;73612;-79
2021/10/17 00:56:08;;;;;;;18.20;9.00;;;;;;;5.79;88.09;101327.42;115556;1192;61620;-79
2021/10/17 00:58:36;;;;;;;14.90;6.90;;;;;;;5.82;87.84;101330.30;115514;1192;60971;-79
2021/10/17 01:01:02;;;;;;;12.40;7.60;;;;;;;5.86;87.94;101329.79;115602;1192;76089;-80
2021/10/17 01:03:29;;;;;;;20.40;8.10;;;;;;;5.92;88.04;101328.60;115664;1191;74229;-78
2021/10/17 01:05:56;;;;;;;16.70;6.50;;;;;;;5.97;87.97;101329.29;115566;1192;73776;-79
2021/10/17 01:08:23;;;;;;;22.40;6.40;;;;;;;6.01;87.89;101329.77;115449;1192;61911;-79
2021/10/17 01:10:56;;;;;;;23.20;7.00;;;;;;;6.06;87.33;101327.11;115415;1192;61345;-80
2021/10/17 01:13:24;;;;;;;18.90;6.20;;;;;;;6.10;87.39;101328.28;115561;1191;73950;-79
2021/10/17 01:15:53;;;;;;;20.10;7.00;;;;;;;6.14;87.27;101325.17;115567;1191;71082;-79
2021/10/17 01:18:22;;;;;;;20.40;9.00;;;;;;;6.20;87.26;101324.54;115715;1192;72213;-79
2021/10/17 01:20:50;;;;;;;15.30;7.00;;;;;;;6.25;86.89;101319.75;115700;1192;62001;-79
2021/10/17 01:23:18;;;;;;;14.50;6.70;;;;;;;6.28;86.75;101315.20;115766;1191;60145;-79
2021/10/17 01:25:45;;;;;;;11.90;5.80;;;;;;;6.31;86.54;101317.96;115670;1192;75810;-79
2021/10/17 01:28:12;;;;;;;16.40;6.90;;;;;;;6.34;86.20;101312.79;115724;1191;71236;-79
2021/10/17 01:30:39;;;;;;;19.60;6.20;;;;;;;6.39;86.02;101311.32;115753;1191;73191;-79
2021/10/17 01:33:06;;;;;;;31.40;6.80;;;;;;;6.42;86.08;101303.47;115676;1192;61014;-79
2021/10/17 01:35:33;;;;;;;15.90;5.30;;;;;;;6.47;85.71;101305.99;115737;1191;60297;-79
2021/10/17 01:38:00;;;;;;;15.70;6.10;;;;;;;6.51;85.49;101300.38;115805;1191;74642;-80
2021/10/17 01:40:26;;;;;;;14.70;6.20;;;;;;;6.56;85.03;101298.45;115754;1192;71990;-79
2021/10/17 01:42:53;;;;;;;21.50;6.60;;;;;;;6.60;84.67;101297.88;115746;1192;59039;-80
2021/10/17 01:45:20;;;;;;;13.30;5.70;;;;;;;6.64;84.83;101300.84;115737;1192;62670;-80
2021/10/17 01:47:49;;;;;;;19.90;7.50;;;;;;;6.68;84.46;101298.92;115795;1192;59995;-80
2021/10/17 01:50:16;;;;;;;23.90;6.90;;;;;;;6.71;84.12;101297.30;115784;1192;75563;-80
2021/10/17 01:52:42;;;;;;;16.10;6.30;;;;;;;6.73;84.02;101301.30;115738;1192;71327;-80
2021/10/17 01:55:09;;;;;;;13.60;6.50;;;;;;;6.76;83.62;101297.53;115716;1191;73153;-80
2021/10/17 01:57:37;;;;;;;22.40;6.30;;;;;;;6.79;83.64;101293.38;115745;1192;58934;-80
2021/10/17 02:00:06;;;;;;;18.00;5.50;;;;;;;6.79;83.44;101285.27;115736;1192;61374;-79
2021/10/17 02:02:32;;;;;;;16.70;6.10;;;;;;;6.85;83.10;101290.09;115701;1192;74632;-79
2021/10/17 02:04:59;;;;;;;16.50;7.60;;;;;;;6.87;83.06;101292.12;115736;1192;71766;-80
2021/10/17 02:07:26;;;;;;;15.20;6.90;;;;;;;6.89;82.96;101287.54;115772;1192;73537;-79
2021/10/17 02:09:52;;;;;;;15.60;7.00;;;;;;;6.91;82.63;101287.40;115719;1192;61648;-79
2021/10/17 02:12:25;;;;;;;11.50;5.60;;;;;;;6.93;82.27;101282.77;115786;1192;58962;-79
2021/10/17 02:14:55;;;;;;;22.80;7.20;;;;;;;6.96;82.04;101280.34;115753;1192;73045;-79
2021/10/17 02:17:21;;;;;;;22.50;6.50;;;;;;;6.97;81.94;101279.73;115770;1192;71231;-79
2021/10/17 02:19:48;;;;;;;20.30;6.70;;;;;;;6.98;82.00;101279.59;115721;1192;71277;-80
2021/10/17 02:22:14;;;;;;;23.40;7.10;;;;;;;6.99;81.98;101286.00;115756;1192;61604;-80
2021/10/17 02:24:41;;;;;;;13.70;5.70;;;;;;;7.01;81.99;101284.12;115792;1192;60402;-79
2021/10/17 02:27:08;;;;;;;21.10;7.10;;;;;;;7.01;81.90;101281.41;115733;1192;75606;-79
2021/10/17 02:29:35;;;;;;;19.40;7.10;;;;;;;7.02;81.86;101276.98;115747;1192;70954;-79
2021/10/17 02:32:02;;;;;;;11.10;5.50;;;;;;;7.02;81.68;101274.48;115737;1192;73876;-80
2021/10/17 02:34:29;;;;;;;21.40;7.30;;;;;;;7.03;81.90;101272.15;115764;1192;63051;-80
2021/10/17 02:36:55;;;;;;;14.90;6.80;;;;;;;7.03;82.08;101276.48;115707;1192;59032;-80
2021/10/17 02:39:22;;;;;;;17.30;6.70;;;;;;;7.03;82.14;101274.56;115747;1192;75839;-80
2021/10/17 02:41:49;;;;;;;23.50;8.10;;;;;;;7.03;82.25;101279.34;115771;1192;58938;-80
2021/10/17 02:44:15;;;;;;;19.40;7.10;;;;;;;7.03;82.35;101277.54;115778;1192;73524;-80
2021/10/17 02:46:42;;;;;;;17.80;7.40;;;;;;;7.04;82.04;101272.91;115792;1192;61976;-80
2021/10/17 02:49:08;;;;;;;21.50;7.30;;;;;;;7.04;82.31;101276.45;115778;1192;61377;-80
2021/10/17 02:51:35;;;;;;;18.00;6.20;;;;;;;7.03;82.18;101268.92;115731;1192;75883;-81
2021/10/17 02:54:03;;;;;;;20.00;5.80;;;;;;;7.04;82.39;101268.13;115831;1192;71508;-81
2021/10/17 02:56:29;;;;;;;16.90;7.90;;;;;;;7.03;82.49;101269.29;115762;1192;72702;-81
2021/10/17 02:58:56;;;;;;;17.20;7.30;;;;;;;7.03;82.32;101264.88;115754;1192;61854;-80
2021/10/17 03:01:22;;;;;;;21.70;7.20;;;;;;;7.04;82.63;101265.54;115778;1192;60281;-81
2021/10/17 03:03:49;;;;;;;16.60;6.60;;;;;;;7.04;82.49;101268.02;115992;1192;74385;-80
2021/10/17 03:06:16;;;;;;;18.50;7.40;;;;;;;7.03;82.85;101269.27;115745;1192;59124;-80
2021/10/17 03:08:42;;;;;;;17.70;7.10;;;;;;;7.05;82.55;101263.15;115783;1192;59057;-80
2021/10/17 03:11:09;;;;;;;14.50;5.80;;;;;;;7.05;82.81;101260.10;115823;1191;59775;-80
2021/10/17 03:13:35;;;;;;;15.20;5.60;;;;;;;7.07;82.86;101259.63;115814;1192;58853;-80
2021/10/17 03:16:02;;;;;;;11.70;7.10;;;;;;;7.07;82.78;101251.35;115772;1192;59270;-80
2021/10/17 03:18:28;;;;;;;16.30;6.00;;;;;;;7.09;82.94;101249.94;115810;1192;70864;-82
2021/10/17 03:20:55;;;;;;;15.70;6.70;;;;;;;7.10;83.07;101253.70;115771;1192;72671;-81
2021/10/17 03:23:21;;;;;;;20.40;7.80;;;;;;;7.12;82.69;101253.23;115805;1192;63426;-81
2021/10/17 03:25:48;;;;;;;14.70;6.80;;;;;;;7.13;82.92;101249.02;115774;1192;58886;-80
2021/10/17 03:28:15;;;;;;;21.90;7.10;;;;;;;7.15;82.92;101248.52;115814;1192;74589;-80
2021/10/17 03:30:42;;;;;;;17.40;7.30;;;;;;;7.15;82.68;101246.88;115747;1192;71067;-81
2021/10/17 03:33:08;;;;;;;16.90;6.20;;;;;;;7.17;82.79;101246.55;115837;1192;72664;-81
2021/10/17 03:35:35;;;;;;;15.00;7.00;;;;;;;7.19;82.76;101250.48;115819;1192;61637;-81
2021/10/17 03:38:01;;;;;;;13.80;6.20;;;;;;;7.21;82.47;101254.09;115831;1192;58900;-82
2021/10/17 03:40:28;;;;;;;17.00;6.10;;;;;;;7.24;82.89;101250.55;115833;1192;74657;-81
2021/10/17 03:42:55;;;;;;;22.00;7.40;;;;;;;7.25;82.62;101254.52;115803;1192;72488;-81
2021/10/17 03:45:21;;;;;;;23.80;8.00;;;;;;;7.25;82.45;101250.94;115798;1191;73591;-81
2021/10/17 03:47:48;;;;;;;13.70;6.10;;;;;;;7.27;82.67;101247.80;115814;1192;61617;-81
2021/10/17 03:50:14;;;;;;;18.00;7.50;;;;;;;7.28;82.67;101251.72;115822;1192;60248;-81
2021/10/17 03:52:41;;;;;;;16.00;6.80;;;;;;;7.29;82.66;101247.24;115837;1192;59448;-81
2021/10/17 03:55:08;;;;;;;23.30;7.00;;;;;;;7.29;82.87;101243.13;115679;1193;58993;-81
2021/10/17 03:57:34;;;;;;;15.90;6.70;;;;;;;7.31;82.79;101246.33;115723;1192;73612;-81
2021/10/17 04:00:02;;;;;;;19.70;6.90;;;;;;;7.31;82.59;101245.11;115790;1192;61840;-81
2021/10/17 04:02:28;;;;;;;13.20;6.20;;;;;;;7.32;82.46;101243.63;115825;1192;60334;-81
2021/10/17 04:04:55;;;;;;;15.50;6.00;;;;;;;7.33;82.72;101244.22;115824;1192;73625;-80
2021/10/17 04:07:22;;;;;;;14.50;5.90;;;;;;;7.36;82.81;101244.15;115798;1192;71071;-80
2021/10/17 04:09:48;;;;;;;18.70;7.30;;;;;;;7.39;82.37;101246.04;115808;1192;59234;-80
2021/10/17 04:12:16;;;;;;;17.10;6.40;;;;;;;7.41;82.68;101247.59;115825;1192;58890;-79
2021/10/17 04:14:42;;;;;;;22.90;7.10;;;;;;;7.42;82.34;101245.57;115869;1191;60249;-79
2021/10/17 04:17:09;;;;;;;13.80;6.50;;;;;;;7.43;82.46;101246.57;115849;1192;60780;-81
2021/10/17 04:19:35;;;;;;;20.30;7.40;;;;;;;7.41;82.07;101240.54;115837;1192;72366;-81
2021/10/17 04:22:02;;;;;;;14.40;6.50;;;;;;;7.41;82.55;101239.51;115851;1192;60274;-82
2021/10/17 04:24:28;;;;;;;17.00;7.80;;;;;;;7.40;82.38;101231.66;115823;1192;61714;-81
2021/10/17 04:26:55;;;;;;;15.80;7.10;;;;;;;7.41;82.65;101229.84;115856;1184;59290;-81
2021/10/17 04:29:21;;;;;;;16.40;7.90;;;;;;;7.40;82.28;101228.87;115828;1192;74501;-81
2021/10/17 04:31:48;;;;;;;15.70;6.00;;;;;;;7.39;82.56;101229.29;115865;1192;71425;-80
2021/10/17 04:34:14;;;;;;;24.10;7.30;;;;;;;7.38;82.65;101234.83;115755;1192;73964;-80
2021/10/17 04:36:41;;;;;;;16.60;6.50;;;;;;;7.37;82.61;101227.88;115832;1191;59016;-80
2021/10/17 04:39:08;;;;;;;15.10;6.60;;;;;;;7.36;82.53;101225.65;115861;1192;60008;-80
2021/10/17 04:41:34;;;;;;;12.10;6.60;;;;;;;7.38;82.80;101232.08;115806;1192;75580;-81
2021/10/17 04:44:02;;;;;;;20.60;6.60;;;;;;;7.36;81.87;101230.92;115875;1191;71385;-81
2021/10/17 04:46:29;;;;;;;13.20;7.50;;;;;;;7.38;82.25;101232.90;115821;1191;72630;-80
2021/10/17 04:48:56;;;;;;;15.60;6.40;;;;;;;7.39;82.28;101237.42;115759;1192;61924;-80
2021/10/17 04:51:23;;;;;;;21.30;7.10;;;;;;;7.40;82.13;101234.48;115287;1192;59954;-80
2021/10/17 04:53:49;;;;;;;19.00;6.30;;;;;;;7.42;82.13;101232.57;115277;1192;74635;-81
2021/10/17 04:56:16;;;;;;;14.40;6.80;;;;;;;7.43;82.19;101235.58;115351;1192;72457;-80
2021/10/17 04:58:43;;;;;;;18.90;6.20;;;;;;;7.44;81.96;101243.23;115328;1192;73894;-81
2021/10/17 05:01:09;;;;;;;19.80;6.40;;;;;;;7.46;82.21;101245.73;114882;1192;59877;-80
2021/10/17 05:03:37;;;;;;;17.40;7.20;;;;;;;7.47;81.88;101244.02;114999;1192;61027;-81
2021/10/17 05:06:04;;;;;;;19.80;8.00;;;;;;;7.48;82.16;101243.23;115123;1192;74686;-81
2021/10/17 05:08:32;;;;;;;19.80;6.90;;;;;;;7.48;81.83;101242.15;115423;1192;72150;-80
2021/10/17 05:10:58;;;;;;;18.30;6.50;;;;;;;7.49;81.75;101246.83;115424;1192;72653;-80
2021/10/17 05:13:25;;;;;;;21.60;7.60;;;;;;;7.51;81.98;101255.83;115510;1192;62691;-80
2021/10/17 05:15:52;;;;;;;24.70;7.80;;;;;;;7.52;81.98;101255.64;115590;1192;59038;-81
2021/10/17 05:18:18;;;;;;;17.60;6.40;;;;;;;7.55;81.84;101257.23;115597;1192;59024;-81
2021/10/17 05:20:45;;;;;;;15.50;6.70;;;;;;;7.56;81.77;101256.57;115587;1192;70715;-81
2021/10/17 05:23:13;;;;;;;20.20;6.80;;;;;;;7.57;81.86;101261.41;115566;1192;60802;-81
2021/10/17 05:25:41;;;;;;;18.90;7.10;;;;;;;7.58;81.79;101262.19;115736;1192;62889;-80
2021/10/17 05:28:08;;;;;;;16.90;7.90;;;;;;;7.59;81.88;101262.41;115771;1192;59932;-80
2021/10/17 05:30:36;;;;;;;16.40;6.10;;;;;;;7.61;81.90;101255.95;115796;1192;75426;-81
2021/10/17 05:33:03;;;;;;;20.80;7.70;;;;;;;7.61;81.58;101259.67;115775;1192;72374;-81
2021/10/17 05:35:30;;;;;;;18.60;7.40;;;;;;;7.60;81.58;101256.17;115718;1192;72969;-80
2021/10/17 05:37:57;;;;;;;19.20;6.30;;;;;;;7.60;81.54;101258.12;115770;1192;62831;-81
2021/10/17 05:40:24;;;;;;;18.10;6.80;;;;;;;7.59;81.48;101257.54;115787;1192;60515;-81
2021/10/17 05:42:51;;;;;;;14.40;7.60;;;;;;;7.59;81.71;101258.26;115856;1192;74832;-81
2021/10/17 05:45:17;;;;;;;15.70;6.90;;;;;;;7.59;81.81;101261.27;115801;1192;59014;-80
2021/10/17 05:47:44;;;;;;;22.20;7.40;;;;;;;7.59;81.49;101258.73;115773;1192;59177;-81
2021/10/17 05:50:10;;;;;;;13.40;7.80;;;;;;;7.60;81.53;101260.77;115716;1192;62744;-81
2021/10/17 05:52:37;;;;;;;21.80;6.90;;;;;;;7.60;81.86;101264.16;115825;1192;58851;-81
2021/10/17 05:55:04;;;;;;;17.50;7.30;;;;;;;7.60;81.79;101265.68;115761;1192;59560;-81
2021/10/17 05:57:32;;;;;;;20.20;7.00;;;;;;;7.60;81.75;101262.73;115677;1192;70705;-80
2021/10/17 05:59:58;;;;;;;14.20;6.70;;;;;;;7.60;81.97;101265.52;115790;1192;72769;-80
2021/10/17 06:02:24;;;;;;;16.70;6.70;;;;;;;7.60;82.08;101259.23;115792;1192;58964;-81
2021/10/17 06:04:51;;;;;;;23.10;8.00;;;;;;;7.59;82.06;101253.34;115782;1192;60842;-80
2021/10/17 06:07:19;;;;;;;14.20;7.20;;;;;;;7.57;82.47;101253.47;115756;1192;59105;-81
2021/10/17 06:09:45;;;;;;;16.70;7.90;;;;;;;7.57;82.30;101252.11;115774;1192;71826;-80
2021/10/17 06:12:12;;;;;;;24.00;7.70;;;;;;;7.57;82.28;101255.30;115771;1192;72651;-80
2021/10/17 06:14:38;;;;;;;25.00;7.60;;;;;;;7.56;82.27;101254.64;115729;1192;58679;-80
2021/10/17 06:17:05;;;;;;;15.40;7.80;;;;;;;7.56;82.13;101263.05;115921;1192;60359;-81
2021/10/17 06:19:32;;;;;;;14.60;7.30;;;;;;;7.58;82.22;101266.11;115821;1192;74628;-80
2021/10/17 06:22:03;;;;;;;33.90;7.50;;;;;;;7.59;82.36;101263.65;115872;1192;71024;-81
2021/10/17 06:24:31;;;;;;;16.20;7.00;;;;;;;7.62;82.25;101267.14;115633;1192;72340;-80
2021/10/17 06:26:57;;;;;;;16.60;7.00;;;;;;;7.64;82.04;101270.94;115838;1192;61941;-80
2021/10/17 06:29:24;;;;;;;18.20;7.40;;;;;;;7.67;81.82;101277.61;115836;1192;61168;-80
2021/10/17 06:31:51;;;;;;;20.40;8.70;;;;;;;7.68;81.90;101280.44;115801;1187;74777;-81
2021/10/17 06:34:18;;;;;;;19.10;8.00;;;;;;;7.71;82.12;101280.02;115795;1192;71233;-81
2021/10/17 06:36:45;;;;;;;15.60;7.20;;;;;;;7.74;81.67;101283.25;115840;1192;74066;-81
2021/10/17 06:39:11;;;;;;;14.70;7.00;;;;;;;7.79;82.21;101290.52;115803;1192;59313;-81
2021/10/17 06:41:38;;;;;;;15.70;7.60;;;;;;;7.84;82.01;101290.07;115873;1192;60210;-81
2021/10/17 06:44:05;;;;;;;14.70;6.30;;;;;;;7.88;81.54;101292.31;115825;1192;74889;-81
2021/10/17 06:46:35;;;;;;;13.30;6.90;;;;;;;7.93;81.20;101295.10;115818;1192;69836;-73
2021/10/17 06:49:01;;;;;;;15.30;6.80;;;;;;;7.97;81.20;101294.13;115701;1192;72566;-74
2021/10/17 06:51:28;;;;;;;25.20;6.40;;;;;;;8.02;80.84;101295.85;115821;1192;58912;-73
2021/10/17 06:53:54;;;;;;;17.40;5.90;;;;;;;8.06;80.49;101299.62;115794;1192;58497;-73
2021/10/17 06:56:21;;;;;;;13.60;6.50;;;;;;;8.12;79.98;101301.88;115619;1192;58844;-73
2021/10/17 06:58:47;;;;;;;22.00;6.70;;;;;;;8.17;79.41;101302.86;115782;1192;58488;-74
2021/10/17 07:01:13;;;;;;;11.10;6.30;;;;;;;8.21;79.16;101306.00;115839;1192;58989;-74
2021/10/17 07:03:41;;;;;;;12.40;6.90;;;;;;;8.26;78.86;101307.98;115832;1191;62769;-74
2021/10/17 07:06:08;;;;;;;11.80;6.60;;;;;;;8.33;78.63;101305.20;115757;1192;61389;-73
2021/10/17 07:08:34;;;;;;;16.50;7.10;;;;;;;8.39;78.32;101303.62;115789;1192;74697;-73
2021/10/17 07:11:01;;;;;;;14.40;6.10;;;;;;;8.44;77.94;101299.42;115784;1192;70875;-73
2021/10/17 07:13:27;;;;;;;12.50;6.30;;;;;;;8.49;77.09;101301.58;115841;1192;59128;-73
2021/10/17 07:15:54;;;;;;;14.10;5.70;;;;;;;8.54;77.14;101303.61;115804;1192;61695;-73
2021/10/17 07:18:21;;;;;;;14.30;6.60;;;;;;;8.59;76.81;101304.52;115784;1192;60220;-73
2021/10/17 07:20:49;;;;;;;21.30;7.70;;;;;;;8.63;76.85;101307.41;115788;1191;74790;-73
2021/10/17 07:23:16;;;;;;;28.10;7.70;;;;;;;8.68;76.57;101312.73;115596;1191;70857;-73
2021/10/17 07:25:44;;;;;;;20.80;6.10;;;;;;;8.72;76.35;101311.44;115773;1192;72333;-73
2021/10/17 07:28:11;;;;;;;23.30;6.70;;;;;;;8.75;75.74;101312.65;115611;1192;61873;-72
2021/10/17 07:30:37;;;;;;;13.00;6.40;;;;;;;8.81;76.01;101314.25;115471;1192;60340;-73
2021/10/17 07:33:04;;;;;;;15.00;6.40;;;;;;;8.86;75.07;101319.98;115805;1192;74722;-73
2021/10/17 07:35:31;;;;;;;20.10;6.70;;;;;;;8.91;75.05;101320.10;115621;1192;58936;-73
2021/10/17 07:37:58;;;;;;;24.00;8.00;;;;;;;8.96;74.43;101320.02;115867;1192;72802;-73
2021/10/17 07:40:24;;;;;;;13.30;6.60;;;;;;;9.00;73.73;101325.33;115821;1184;61588;-72
2021/10/17 07:42:51;;;;;;;14.30;6.30;;;;;;;9.02;74.09;101320.86;115768;1192;59055;-73
2021/10/17 07:45:18;;;;;;;11.70;6.70;;;;;;;9.05;73.92;101321.84;115835;1192;59615;-73
2021/10/17 07:47:44;;;;;;;15.50;6.50;;;;;;;9.08;74.22;101317.86;115822;1192;71484;-73
2021/10/17 07:50:10;;;;;;;12.30;7.00;;;;;;;9.11;74.10;101321.23;115717;1192;59644;-73
2021/10/17 07:52:37;;;;;;;14.70;5.50;;;;;;;9.13;73.81;101324.27;115805;1192;59343;-73
2021/10/17 07:55:05;;;;;;;18.00;6.50;;;;;;;9.16;73.74;101324.30;115808;1192;59050;-75
2021/10/17 07:57:52;;;;;;;12.70;7.10;;;;;;;9.20;73.66;101325.80;115820;1192;74558;-74
2021/10/17 08:00:20;;;;;;;18.90;5.40;;;;;;;9.26;73.31;101322.38;115758;1192;71032;-73
2021/10/17 08:02:47;;;;;;;13.10;5.10;;;;;;;9.32;73.20;101322.02;115798;1192;73743;-73
2021/10/17 08:05:14;;;;;;;11.80;5.40;;;;;;;9.39;73.01;101321.52;115810;1192;61712;-73
2021/10/17 08:07:41;;;;;;;13.80;5.80;;;;;;;9.46;72.83;101323.46;115848;1192;61395;-73
2021/10/17 08:10:09;;;;;;;13.10;5.90;;;;;;;9.50;72.75;101323.73;115786;1192;74316;-73
2021/10/17 08:12:37;;;;;;;17.60;5.80;;;;;;;9.55;73.23;101326.58;115785;1192;70752;-74
2021/10/17 08:15:05;;;;;;;12.20;5.80;;;;;;;9.57;73.09;101326.40;115758;1192;73771;-73
2021/10/17 08:17:32;;;;;;;15.50;6.20;;;;;;;9.58;72.97;101325.73;115847;1191;62830;-75
2021/10/17 08:19:59;;;;;;;17.20;6.50;;;;;;;9.57;72.47;101326.42;115564;1193;61586;-75
2021/10/17 08:22:26;;;;;;;24.90;7.40;;;;;;;9.50;72.03;101335.73;115892;1192;74663;-74
2021/10/17 08:24:52;;;;;;;20.20;7.00;;;;;;;9.45;72.27;101334.50;115801;1192;59078;-74
2021/10/17 08:27:19;;;;;;;13.40;6.70;;;;;;;9.43;72.61;101338.46;115724;1192;58751;-74
2021/10/17 08:29:46;;;;;;;15.00;6.10;;;;;;;9.40;72.89;101339.06;115782;1192;63018;-73
2021/10/17 08:32:13;;;;;;;18.70;6.70;;;;;;;9.37;72.98;101340.14;115863;1192;59954;-73
2021/10/17 08:34:41;;;;;;;13.50;6.00;;;;;;;9.37;73.40;101342.68;115843;1192;73535;-74
2021/10/17 08:37:08;;;;;;;20.90;5.60;;;;;;;9.34;73.42;101341.02;115808;1192;71262;-74
2021/10/17 08:39:34;;;;;;;14.80;5.80;;;;;;;9.34;73.75;101344.15;115830;1191;60847;-74
2021/10/17 08:42:02;;;;;;;23.60;7.70;;;;;;;9.36;73.63;101346.86;115897;1192;62167;-73
2021/10/17 08:44:29;;;;;;;14.80;6.60;;;;;;;9.38;74.01;101345.93;115809;1192;60077;-74
2021/10/17 08:46:59;;;;;;;14.10;6.70;;;;;;;9.39;73.70;101350.04;115770;1192;74590;-75
2021/10/17 08:49:27;;;;;;;11.80;5.90;;;;;;;9.43;73.79;101354.45;115635;1192;72087;-74
2021/10/17 08:51:53;;;;;;;13.40;6.50;;;;;;;9.46;73.26;101352.59;115706;1192;73921;-75
2021/10/17 08:54:20;;;;;;;16.40;6.00;;;;;;;9.48;73.09;101353.39;115811;1192;61703;-75
2021/10/17 08:56:47;;;;;;;18.90;5.90;;;;;;;9.53;73.52;101353.09;115848;1191;59124;-73
2021/10/17 08:59:13;;;;;;;15.70;6.10;;;;;;;9.58;72.86;101356.02;115828;1192;75602;-74
2021/10/17 09:01:40;;;;;;;11.60;5.30;;;;;;;9.61;72.80;101353.22;115840;1192;69662;-72
2021/10/17 09:04:09;;;;;;;10.90;4.80;;;;;;;9.65;72.46;101352.11;115658;1191;72015;-73
2021/10/17 09:06:39;;;;;;;13.10;5.30;;;;;;;9.69;72.75;101355.38;115727;1192;61690;-73
2021/10/17 09:09:18;;;;;;;11.80;4.70;;;;;;;9.71;72.11;101353.05;115771;1191;61338;-73
2021/10/17 09:11:47;;;;;;;11.90;4.60;;;;;;;9.73;71.57;101353.20;115791;1191;75730;-73
2021/10/17 09:14:22;;;;;;;14.80;6.10;;;;;;;9.76;71.90;101354.70;115862;1192;71028;-73
2021/10/17 09:16:49;;;;;;;;;;;;;;;9.78;71.72;101354.98;115755;1192;73578;-73
2021/10/17 09:19:28;;;;;;;10.40;3.90;;;;;;;9.80;70.92;101353.61;115779;1191;61875;-73
2021/10/17 09:22:07;;;;;;;13.40;5.10;;;;;;;9.83;71.00;101352.98;115764;1191;60239;-73
2021/10/17 09:24:42;;;;;;;14.50;4.30;;;;;;;9.88;71.17;101356.75;115753;1191;75387;-73
2021/10/17 09:27:16;;;;;;;12.50;4.70;;;;;;;9.91;70.63;101356.91;115629;1191;72695;-73
2021/10/17 09:29:48;;;;;;;12.90;4.30;;;;;;;9.93;70.36;101354.41;115792;1192;72996;-73
2021/10/17 09:32:19;;;;;;;8.20;4.00;;;;;;;9.99;70.71;101352.06;115801;1192;61860;-73
2021/10/17 09:34:52;;;;;;;12.50;4.60;;;;;;;10.06;70.90;101352.43;115807;1192;60330;-72
2021/10/17 09:37:20;;;;;;;13.40;5.80;;;;;;;10.11;70.42;101351.58;115689;1192;75805;-72
2021/10/17 09:39:59;;;;;;;11.10;4.10;;;;;;;10.14;70.04;101349.25;115814;1184;71991;-73
2021/10/17 09:42:26;;;;;;;9.20;4.40;;;;;;;10.18;69.74;101350.11;115816;1191;72692;-74
2021/10/17 09:44:52;;;;;;;9.90;3.70;;;;;;;10.24;70.05;101353.81;115728;1192;61885;-76
2021/10/17 09:47:19;;;;;;;9.70;4.00;;;;;;;10.29;69.14;101358.44;115795;1192;59242;-74
2021/10/17 09:49:47;;;;;;;10.10;4.30;;;;;;;10.32;68.88;101358.34;115780;1191;59006;-74
2021/10/17 09:52:19;;;;;;;11.70;3.90;;;;;;;10.40;69.11;101360.52;115862;1192;72015;-74
2021/10/17 09:54:47;;;;;;;14.80;3.80;;;;;;;10.44;68.78;101362.52;115852;1191;72488;-74
2021/10/17 09:57:15;;;;;;;12.00;3.50;;;;;;;10.48;68.84;101360.89;115802;1191;62169;-74
2021/10/17 09:59:42;;;;;;;8.00;3.00;;;;;;;10.49;67.92;101362.23;115812;1192;59319;-73
2021/10/17 10:02:11;;;;;;;15.60;3.50;;;;;;;10.55;67.93;101362.27;115485;1192;74598;-74
2021/10/17 10:04:45;;;;;;;7.20;3.20;;;;;;;10.65;67.87;101358.67;115780;1192;70964;-74
2021/10/17 10:07:16;;;;;;;14.00;3.50;;;;;;;10.72;67.31;101354.05;115849;1183;72841;-75
2021/10/17 10:09:48;;;;;;;8.10;3.40;;;;;;;10.80;67.05;101355.82;115841;1191;62193;-75
2021/10/17 10:12:18;;;;;;;9.00;3.50;;;;;;;10.91;67.10;101356.82;115863;1191;60262;-74
2021/10/17 10:14:48;;;;;;;11.80;4.10;;;;;;;11.01;66.58;101351.66;115775;1192;76495;-74
2021/10/17 10:17:16;;;;;;;15.60;5.00;;;;;;;11.12;65.82;101349.88;115553;1192;71773;-75
2021/10/17 10:19:44;;;;;;;10.60;3.50;;;;;;;11.24;66.23;101348.05;115774;1192;73579;-73
2021/10/17 10:22:13;;;;;;;11.70;3.60;;;;;;;11.39;65.96;101351.02;115675;1192;63033;-72
2021/10/17 10:24:46;;;;;;;10.00;3.60;;;;;;;11.51;65.30;101356.15;115571;1192;61646;-74
2021/10/17 10:27:13;;;;;;;10.80;2.90;;;;;;;11.62;64.99;101361.55;114462;1193;77111;-80
2021/10/17 10:29:41;;;;;;;7.60;2.80;;;;;;;11.71;64.91;101359.45;115612;1192;72187;-75
2021/10/17 10:32:08;;;;;;;8.40;3.30;;;;;;;11.79;64.84;101360.19;115185;1192;73554;-75
2021/10/17 10:34:37;;;;;;;11.90;3.60;;;;;;;11.91;65.77;101362.81;115217;1191;61703;-75
2021/10/17 10:37:16;;;;;;;12.10;4.20;;;;;;;12.01;64.31;101367.57;115638;1192;61612;-76
2021/10/17 10:40:03;;;;;;;5.90;2.70;;;;;;;12.10;63.65;101367.14;115663;1191;75676;-75
2021/10/17 10:42:47;;;;;;;7.90;3.00;;;;;;;12.16;63.36;101364.13;115829;1192;72085;-75
2021/10/17 10:45:29;;;;;;;8.10;3.30;;;;;;;12.17;61.65;101364.36;115826;1191;73995;-75
2021/10/17 10:48:17;;;;;;;5.80;2.70;;;;;;;12.13;62.01;101363.40;115844;1192;61287;-75
2021/10/17 10:50:53;;;;;;;7.80;2.80;;;;;;;12.14;62.20;101359.95;115868;1192;59968;-74
2021/10/17 10:53:44;;;;;;;6.00;2.70;;;;;;;12.14;62.18;101362.20;115808;1192;74803;-74
2021/10/17 10:56:10;;;;;;;5.20;2.40;;;;;;;12.19;62.20;101359.20;115807;1192;71250;-74
2021/10/17 10:58:54;;;;;;;9.40;2.90;;;;;;;12.29;62.45;101360.95;115755;1191;59226;-74
2021/10/17 11:02:01;;;;;;;10.80;3.10;;;;;;;12.42;62.77;101363.07;115825;1192;62955;-75
2021/10/17 11:04:37;;;;;;;9.80;2.50;;;;;;;12.54;62.05;101362.81;115822;1192;59063;-74
2021/10/17 11:07:23;;;;;;;6.10;3.00;;;;;;;12.54;61.84;101363.70;115851;1192;74541;-75
2021/10/17 11:09:52;;;;;;;8.80;2.30;;;;;;;12.61;62.17;101364.48;115837;1192;71027;-75
2021/10/17 11:12:40;;;;;;;7.90;2.90;;;;;;;12.64;60.83;101367.66;115579;1191;73688;-73
2021/10/17 11:15:09;;;;;;;9.30;3.40;;;;;;;12.68;61.93;101370.44;115663;1191;61912;-74
2021/10/17 11:17:37;;;;;;;6.30;2.80;;;;;;;12.74;62.03;101365.76;115660;1192;59946;-74
2021/10/17 11:20:05;;;;;;;8.60;2.60;;;;;;;12.78;61.78;101369.38;115763;1192;74585;-74
2021/10/17 11:22:35;;;;;;;8.50;2.60;;;;;;;12.85;61.73;101365.73;115719;1191;71701;-74